Time,TemperatureF,DewpointF,PressureIn,WindDirection,WindDirectionDegrees,WindSpeedMPH,WindSpeedGustMPH,Humidity,HourlyPrecipIn,Conditions,Clouds,dailyrainin,SoftwareType,DateUTC
2013-08-20 00:12:00,75.1,71.0,29.98,East,86,0.0,0.0,88,0.00,,,0.00,weatherlink.com 1.10,2013-08-20 05:12:00,
2013-08-20 00:27:00,74.7,71.0,29.98,East,86,1.0,1.0,89,0.00,,,0.00,weatherlink.com 1.10,2013-08-20 05:27:00,
2013-08-20 00:42:00,74.4,71.0,29.98,East,81,1.0,2.0,90,0.00,,,0.00,weatherlink.com 1.10,2013-08-20 05:42:00,
2013-08-20 00:57:00,74.2,71.0,29.98,East,80,1.0,2.0,90,0.00,,,0.00,weatherlink.com 1.10,2013-08-20 05:57:00,
2013-08-20 01:12:00,74.0,71.0,29.97,East,82,2.0,2.0,90,0.00,,,0.00,weatherlink.com 1.10,2013-08-20 06:12:00,
2013-08-20 01:27:00,73.9,71.0,29.96,ENE,74,2.0,2.0,91,0.00,,,0.00,weatherlink.com 1.10,2013-08-20 06:27:00,
2013-08-20 01:42:00,73.8,71.0,29.96,East,79,0.0,2.0,91,0.00,,,0.00,weatherlink.com 1.10,2013-08-20 06:42:00,
2013-08-20 01:57:00,73.5,71.0,29.96,East,80,2.0,2.0,91,0.00,,,0.00,weatherlink.com 1.10,2013-08-20 06:57:00,
2013-08-20 02:12:00,73.4,71.0,29.95,East,81,0.0,2.0,92,0.00,,,0.00,weatherlink.com 1.10,2013-08-20 07:12:00,
2013-08-20 02:27:00,73.4,71.0,29.96,East,82,0.0,2.0,92,0.00,,,0.00,weatherlink.com 1.10,2013-08-20 07:27:00,
2013-08-20 02:42:00,73.4,71.0,29.96,East,82,0.0,1.0,92,0.00,,,0.00,weatherlink.com 1.10,2013-08-20 07:42:00,
2013-08-20 02:57:00,73.3,71.0,29.95,East,88,0.0,1.0,92,0.00,,,0.00,weatherlink.com 1.10,2013-08-20 07:57:00,
2013-08-20 03:12:00,73.3,71.0,29.95,ENE,74,0.0,2.0,92,0.00,,,0.00,weatherlink.com 1.10,2013-08-20 08:12:00,
2013-08-20 03:27:00,73.2,71.0,29.95,East,89,0.0,1.0,92,0.00,,,0.00,weatherlink.com 1.10,2013-08-20 08:27:00,
2013-08-20 03:42:00,73.2,71.0,29.95,ENE,67,1.0,2.0,93,0.00,,,0.00,weatherlink.com 1.10,2013-08-20 08:42:00,
2013-08-20 03:57:00,73.4,71.0,29.95,ENE,70,1.0,2.0,93,0.00,,,0.00,weatherlink.com 1.10,2013-08-20 08:57:00,
2013-08-20 04:12:00,73.4,71.0,29.96,East,84,1.0,2.0,93,0.00,,,0.00,weatherlink.com 1.10,2013-08-20 09:12:00,
2013-08-20 04:27:00,73.3,71.0,29.96,ENE,78,1.0,3.0,93,0.00,,,0.00,weatherlink.com 1.10,2013-08-20 09:27:00,
2013-08-20 04:43:00,73.2,71.0,29.96,East,86,0.0,2.0,93,0.00,,,0.00,weatherlink.com 1.10,2013-08-20 09:43:00,
2013-08-20 04:58:00,73.1,71.0,29.96,East,89,1.0,2.0,93,0.00,,,0.00,weatherlink.com 1.10,2013-08-20 09:58:00,
2013-08-20 05:13:00,73.1,71.0,29.96,East,89,0.0,1.0,94,0.00,,,0.00,weatherlink.com 1.10,2013-08-20 10:13:00,
2013-08-20 05:28:00,73.0,71.0,29.96,East,84,0.0,2.0,94,0.00,,,0.00,weatherlink.com 1.10,2013-08-20 10:28:00,
2013-08-20 05:43:00,73.0,71.0,29.96,East,84,1.0,1.0,94,0.00,,,0.00,weatherlink.com 1.10,2013-08-20 10:43:00,
2013-08-20 05:58:00,72.9,71.0,29.96,East,85,0.0,1.0,94,0.00,,,0.00,weatherlink.com 1.10,2013-08-20 10:58:00,
2013-08-20 06:13:00,72.9,71.0,29.97,East,84,0.0,1.0,94,0.00,,,0.00,weatherlink.com 1.10,2013-08-20 11:13:00,
2013-08-20 06:28:00,73.0,71.0,29.97,ENE,77,0.0,1.0,94,0.00,,,0.00,weatherlink.com 1.10,2013-08-20 11:28:00,
2013-08-20 06:43:00,73.3,72.0,29.98,ENE,74,0.0,1.0,94,0.00,,,0.00,weatherlink.com 1.10,2013-08-20 11:43:00,
2013-08-20 06:58:00,73.5,72.0,29.98,East,86,0.0,1.0,94,0.00,,,0.00,weatherlink.com 1.10,2013-08-20 11:58:00,
2013-08-20 07:13:00,73.7,72.0,29.98,East,86,0.0,1.0,94,0.00,,,0.00,weatherlink.com 1.10,2013-08-20 12:13:00,
2013-08-20 07:28:00,74.3,72.0,29.99,ENE,72,0.0,3.0,93,0.00,,,0.00,weatherlink.com 1.10,2013-08-20 12:28:00,
2013-08-20 07:43:00,74.8,72.0,29.99,ENE,72,1.0,3.0,92,0.00,,,0.00,weatherlink.com 1.10,2013-08-20 12:43:00,
2013-08-20 07:58:00,75.2,73.0,30.00,ENE,72,2.0,3.0,92,0.00,,,0.00,weatherlink.com 1.10,2013-08-20 12:58:00,
2013-08-20 08:13:00,75.8,73.0,30.00,ENE,64,2.0,3.0,91,0.00,,,0.00,weatherlink.com 1.10,2013-08-20 13:13:00,
2013-08-20 08:28:00,76.5,74.0,30.00,ENE,78,1.0,3.0,90,0.00,,,0.00,weatherlink.com 1.10,2013-08-20 13:28:00,
2013-08-20 08:43:00,77.1,74.0,30.01,NE,53,2.0,6.0,89,0.00,,,0.00,weatherlink.com 1.10,2013-08-20 13:43:00,
2013-08-20 08:58:00,77.8,74.0,30.01,East,98,4.0,5.0,88,0.00,,,0.00,weatherlink.com 1.10,2013-08-20 13:58:00,
2013-08-20 09:13:00,78.5,74.0,30.01,ENE,68,3.0,7.0,87,0.00,,,0.00,weatherlink.com 1.10,2013-08-20 14:13:00,
2013-08-20 09:28:00,80.6,75.0,30.02,WNW,295,0.0,4.0,84,0.00,,,0.00,weatherlink.com 1.10,2013-08-20 14:28:00,
2013-08-20 09:43:00,82.3,76.0,30.02,NW,309,2.0,4.0,81,0.00,,,0.00,weatherlink.com 1.10,2013-08-20 14:43:00,
2013-08-20 09:58:00,81.6,75.0,30.02,WNW,297,2.0,5.0,80,0.00,,,0.00,weatherlink.com 1.10,2013-08-20 14:58:00,
2013-08-20 10:13:00,80.8,75.0,30.02,WNW,291,2.0,6.0,82,0.00,,,0.00,weatherlink.com 1.10,2013-08-20 15:13:00,
2013-08-20 10:28:00,77.1,73.0,30.03,NW,305,3.0,8.0,88,0.41,,,0.41,weatherlink.com 1.10,2013-08-20 15:28:00,
2013-08-20 10:44:00,74.2,72.0,30.04,WNW,294,1.0,8.0,92,0.63,,,0.63,weatherlink.com 1.10,2013-08-20 15:44:00,
2013-08-20 10:58:00,73.3,71.0,30.04,ESE,108,0.0,7.0,93,0.81,,,0.81,weatherlink.com 1.10,2013-08-20 15:58:00,
2013-08-20 11:13:00,73.1,71.0,30.04,SSW,193,0.0,1.0,94,0.81,,,0.81,weatherlink.com 1.10,2013-08-20 16:13:00,
2013-08-20 11:28:00,73.3,72.0,30.05,East,91,1.0,2.0,94,0.35,,,0.81,weatherlink.com 1.10,2013-08-20 16:28:00,
2013-08-20 11:43:00,73.6,72.0,30.06,ESE,123,2.0,2.0,94,0.19,,,0.82,weatherlink.com 1.10,2013-08-20 16:43:00,
2013-08-20 11:58:00,73.4,72.0,30.05,SE,134,0.0,4.0,94,0.01,,,0.82,weatherlink.com 1.10,2013-08-20 16:58:00,
2013-08-20 12:13:00,73.0,71.0,30.04,East,99,2.0,3.0,94,0.02,,,0.83,weatherlink.com 1.10,2013-08-20 17:13:00,
2013-08-20 12:28:00,72.9,71.0,30.04,East,84,1.0,4.0,94,0.04,,,0.85,weatherlink.com 1.10,2013-08-20 17:28:00,
2013-08-20 12:43:00,73.2,72.0,30.04,ENE,61,0.0,2.0,95,0.04,,,0.86,weatherlink.com 1.10,2013-08-20 17:43:00,
2013-08-20 12:58:00,73.3,72.0,30.04,ENE,61,0.0,1.0,95,0.07,,,0.89,weatherlink.com 1.10,2013-08-20 17:58:00,
2013-08-20 13:13:00,73.4,72.0,30.03,ENE,64,0.0,1.0,95,0.09,,,0.92,weatherlink.com 1.10,2013-08-20 18:13:00,
2013-08-20 13:28:00,73.4,72.0,30.03,ENE,61,0.0,2.0,95,0.10,,,0.95,weatherlink.com 1.10,2013-08-20 18:28:00,
2013-08-20 13:43:00,73.5,72.0,30.03,East,85,1.0,1.0,95,0.11,,,0.97,weatherlink.com 1.10,2013-08-20 18:43:00,
2013-08-20 13:58:00,73.7,72.0,30.03,East,84,1.0,2.0,95,0.11,,,1.00,weatherlink.com 1.10,2013-08-20 18:58:00,
2013-08-20 14:13:00,74.1,73.0,30.03,ENE,64,0.0,2.0,95,0.10,,,1.02,weatherlink.com 1.10,2013-08-20 19:13:00,
2013-08-20 14:28:00,74.7,73.0,30.03,ENE,71,0.0,1.0,95,0.07,,,1.02,weatherlink.com 1.10,2013-08-20 19:28:00,
2013-08-20 14:43:00,75.5,74.0,30.02,ENE,74,1.0,2.0,94,0.05,,,1.02,weatherlink.com 1.10,2013-08-20 19:43:00,
2013-08-20 14:58:00,76.1,74.0,30.01,ENE,74,0.0,2.0,94,0.02,,,1.02,weatherlink.com 1.10,2013-08-20 19:58:00,
2013-08-20 15:13:00,77.2,75.0,30.00,ENE,78,1.0,1.0,93,0.00,,,1.02,weatherlink.com 1.10,2013-08-20 20:13:00,
2013-08-20 15:28:00,78.9,76.0,30.00,East,86,1.0,2.0,90,0.00,,,1.02,weatherlink.com 1.10,2013-08-20 20:28:00,
2013-08-20 15:44:00,80.7,77.0,30.01,East,95,5.0,6.0,87,0.00,,,1.02,weatherlink.com 1.10,2013-08-20 20:44:00,
2013-08-20 15:59:00,81.0,76.0,30.00,ENE,71,2.0,5.0,84,0.00,,,1.02,weatherlink.com 1.10,2013-08-20 20:59:00,
2013-08-20 16:14:00,81.4,75.0,30.00,NE,51,3.0,5.0,82,0.00,,,1.02,weatherlink.com 1.10,2013-08-20 21:14:00,
2013-08-20 16:29:00,82.4,75.0,30.00,ENE,73,2.0,4.0,79,0.00,,,1.02,weatherlink.com 1.10,2013-08-20 21:29:00,
2013-08-20 16:44:00,82.7,77.0,30.00,WNW,290,1.0,4.0,82,0.00,,,1.02,weatherlink.com 1.10,2013-08-20 21:44:00,
2013-08-20 16:59:00,83.0,76.0,29.99,ENE,75,0.0,1.0,80,0.00,,,1.02,weatherlink.com 1.10,2013-08-20 21:59:00,
2013-08-20 17:14:00,83.2,76.0,29.99,ENE,72,0.0,2.0,80,0.00,,,1.02,weatherlink.com 1.10,2013-08-20 22:14:00,
2013-08-20 17:29:00,83.0,76.0,29.98,ENE,71,2.0,2.0,79,0.00,,,1.02,weatherlink.com 1.10,2013-08-20 22:29:00,
2013-08-20 17:44:00,81.7,75.0,29.98,East,91,2.0,4.0,81,0.00,,,1.02,weatherlink.com 1.10,2013-08-20 22:44:00,
2013-08-20 17:59:00,81.3,75.0,29.97,ENE,70,3.0,3.0,82,0.00,,,1.02,weatherlink.com 1.10,2013-08-20 22:59:00,
2013-08-20 18:14:00,81.2,75.0,29.97,East,89,2.0,4.0,82,0.00,,,1.02,weatherlink.com 1.10,2013-08-20 23:14:00,
2013-08-20 18:29:00,81.0,75.0,29.97,East,101,1.0,2.0,82,0.00,,,1.02,weatherlink.com 1.10,2013-08-20 23:29:00,
2013-08-20 18:44:00,81.0,75.0,29.97,East,89,2.0,3.0,83,0.00,,,1.02,weatherlink.com 1.10,2013-08-20 23:44:00,
2013-08-20 18:59:00,80.6,75.0,29.97,East,89,2.0,3.0,83,0.00,,,1.02,weatherlink.com 1.10,2013-08-20 23:59:00,
2013-08-20 19:14:00,80.2,75.0,29.98,East,96,1.0,4.0,84,0.00,,,1.02,weatherlink.com 1.10,2013-08-21 00:14:00,
2013-08-20 19:29:00,79.7,75.0,29.98,East,84,1.0,2.0,85,0.00,,,1.02,weatherlink.com 1.10,2013-08-21 00:29:00,
2013-08-20 19:44:00,79.0,75.0,29.98,East,85,0.0,1.0,86,0.00,,,1.02,weatherlink.com 1.10,2013-08-21 00:44:00,
2013-08-20 19:59:00,78.3,74.0,29.98,East,85,0.0,0.0,87,0.00,,,1.02,weatherlink.com 1.10,2013-08-21 00:59:00,
2013-08-20 20:14:00,77.3,74.0,29.98,East,83,0.0,0.0,90,0.00,,,1.02,weatherlink.com 1.10,2013-08-21 01:14:00,
2013-08-20 20:29:00,76.8,74.0,29.98,East,85,0.0,1.0,90,0.00,,,1.02,weatherlink.com 1.10,2013-08-21 01:29:00,
2013-08-20 20:44:00,76.4,74.0,29.98,East,85,1.0,1.0,91,0.00,,,1.02,weatherlink.com 1.10,2013-08-21 01:44:00,
2013-08-20 20:59:00,76.2,74.0,29.99,East,84,1.0,1.0,92,0.00,,,1.02,weatherlink.com 1.10,2013-08-21 01:59:00,
2013-08-20 21:14:00,76.0,74.0,29.99,East,84,0.0,0.0,92,0.00,,,1.02,weatherlink.com 1.10,2013-08-21 02:14:00,
2013-08-20 21:29:00,75.5,73.0,29.99,East,84,0.0,0.0,92,0.00,,,1.02,weatherlink.com 1.10,2013-08-21 02:29:00,
2013-08-20 21:44:00,75.2,73.0,29.99,East,84,1.0,1.0,92,0.00,,,1.02,weatherlink.com 1.10,2013-08-21 02:44:00,
2013-08-20 21:59:00,75.1,73.0,30.00,East,83,0.0,1.0,92,0.00,,,1.02,weatherlink.com 1.10,2013-08-21 02:59:00,
2013-08-20 22:14:00,75.0,73.0,30.00,East,84,0.0,1.0,93,0.00,,,1.02,weatherlink.com 1.10,2013-08-21 03:14:00,
2013-08-20 22:29:00,74.7,73.0,30.01,East,86,0.0,2.0,93,0.00,,,1.02,weatherlink.com 1.10,2013-08-21 03:29:00,
2013-08-20 22:44:00,74.6,73.0,30.01,ESE,102,3.0,3.0,93,0.00,,,1.02,weatherlink.com 1.10,2013-08-21 03:44:00,
2013-08-20 22:59:00,74.6,73.0,30.01,East,79,2.0,3.0,93,0.00,,,1.02,weatherlink.com 1.10,2013-08-21 03:59:00,
2013-08-20 23:14:00,74.5,72.0,30.01,East,91,1.0,2.0,93,0.00,,,1.02,weatherlink.com 1.10,2013-08-21 04:14:00,
2013-08-20 23:29:00,74.2,72.0,30.02,East,91,2.0,3.0,94,0.00,,,1.02,weatherlink.com 1.10,2013-08-21 04:29:00,
2013-08-20 23:44:00,74.2,72.0,30.02,East,79,2.0,4.0,94,0.00,,,1.02,weatherlink.com 1.10,2013-08-21 04:44:00,
2013-08-20 23:59:00,74.2,72.0,30.02,East,89,2.0,4.0,94,0.00,,,0.00,weatherlink.com 1.10,2013-08-21 04:59:00,